CheckWX is a tool to help pilots better visualize weather data.  It is not intended as a substitute for an official pre-flight weather briefing.

12:43:23 UTC

KHCD METAR
Hutchinson Municipal-Butler Field Airport
Hutchinson, Minnesota, USA
Current

8 mins ago

KHCD 201235Z AUTO 29008KT 10SM CLR 06/04 A3016 RMK AO2 T00620040
Observed
May-20 @ 12:35 UTC
Wind
  • 290° at 8 KTS
Visibility
10 SM
Flight Rules
VFR
Cloud Levels
  • Clear skies
Temperature
C / 43°F
Dewpoint
C / 39°F
Humidity
87%
Altimeter
30.16" Hg
Pressure
1021.32 hPa
Previous

28 mins ago

KHCD 201215Z AUTO 29007KT 10SM CLR 06/04 A3016 RMK AO2 T00560037
Observed
May-20 @ 12:15 UTC
Wind
  • 290° at 7 KTS
Visibility
10 SM
Flight Rules
VFR
Cloud Levels
  • Clear skies
Temperature
C / 43°F
Dewpoint
C / 39°F
Humidity
87%
Altimeter
30.16" Hg
Pressure
1021.32 hPa
Previous

48 mins ago

KHCD 201155Z AUTO 29008KT 10SM CLR 05/03 A3015 RMK AO2 7//// T00490032 10049 20025
Observed
May-20 @ 11:55 UTC
Wind
  • 290° at 8 KTS
Visibility
10 SM
Flight Rules
VFR
Cloud Levels
  • Clear skies
Temperature
C / 41°F
Dewpoint
C / 37°F
Humidity
87%
Altimeter
30.15" Hg
Pressure
1021.02 hPa